Time;durP1;ratioP1;P1;durP2;ratioP2;P2;SDS_P1;SDS_P2;PMS_P1;PMS_P2;Temp;Humidity;BMP_temperature;BMP_pressure;BME280_temperature;BME280_humidity;BME280_pressure;Samples;Min_cycle;Max_cycle;Signal;HPM_P1;HPM_P2
2023/09/13 00:01:28;;;;;;;12.85;11.65;;;;;;;20.07;100.00;101126.03;6206383;28;20258;-69
2023/09/13 00:04:49;;;;;;;12.45;11.25;;;;;;;20.04;100.00;101128.31;6207927;28;20235;-69
2023/09/13 00:08:10;;;;;;;12.65;11.55;;;;;;;20.11;100.00;101126.50;6203751;28;20245;-68
2023/09/13 00:11:31;;;;;;;11.93;10.90;;;;;;;20.25;100.00;101134.72;6204456;28;20228;-68
2023/09/13 00:14:52;;;;;;;13.95;12.60;;;;;;;20.31;100.00;101144.91;6197597;28;20678;-68
2023/09/13 00:18:16;;;;;;;13.27;11.68;;;;;;;20.15;100.00;101145.06;6202734;28;20255;-69
2023/09/13 00:21:40;;;;;;;12.25;11.07;;;;;;;20.08;100.00;101138.69;6204749;28;20229;-68
2023/09/13 00:25:01;;;;;;;12.40;10.73;;;;;;;20.01;100.00;101136.88;6206882;28;20221;-67
2023/09/13 00:28:22;;;;;;;13.43;11.82;;;;;;;20.01;100.00;101136.88;6208090;28;20229;-68
2023/09/13 00:31:43;;;;;;;12.55;11.40;;;;;;;20.20;100.00;101119.91;6206805;28;20225;-67
2023/09/13 00:35:06;;;;;;;14.32;12.82;;;;;;;20.36;100.00;101112.28;6207056;28;20229;-69
2023/09/13 00:38:27;;;;;;;12.45;11.38;;;;;;;20.30;100.00;101112.22;6204634;28;20514;-69
2023/09/13 00:41:48;;;;;;;12.85;11.50;;;;;;;20.22;100.00;101117.81;6203367;28;20229;-68
2023/09/13 00:45:09;;;;;;;12.80;11.60;;;;;;;20.12;100.00;101114.50;6204599;28;20261;-69
2023/09/13 00:48:35;;;;;;;14.88;13.45;;;;;;;20.09;100.00;101103.97;6200556;28;20236;-69
2023/09/13 00:51:58;;;;;;;12.95;11.65;;;;;;;20.18;100.00;101117.31;6201012;28;20238;-68
2023/09/13 00:55:22;;;;;;;16.08;13.52;;;;;;;20.21;100.00;101103.31;6204104;28;20753;-68
2023/09/13 00:58:43;;;;;;;15.05;13.55;;;;;;;20.13;100.00;101114.31;6191685;28;20229;-67
2023/09/13 01:02:04;;;;;;;15.85;14.43;;;;;;;20.12;100.00;101122.72;6196207;28;20229;-68
2023/09/13 01:05:26;;;;;;;17.13;15.13;;;;;;;20.17;100.00;101123.00;6211010;28;20232;-68
2023/09/13 01:08:49;;;;;;;15.85;14.32;;;;;;;20.16;100.00;101126.78;6202568;28;20316;-68
2023/09/13 01:12:10;;;;;;;15.65;13.82;;;;;;;20.33;100.00;101115.44;6205423;28;20249;-68
2023/09/13 01:15:36;;;;;;;17.02;14.93;;;;;;;20.41;100.00;101118.06;6187448;28;20233;-68
2023/09/13 01:19:02;;;;;;;15.95;14.35;;;;;;;20.46;100.00;101109.25;6196875;28;20236;-68
2023/09/13 01:22:43;;;;;;;16.55;14.73;;;;;;;20.51;100.00;101098.53;6198688;28;20241;-67
2023/09/13 01:26:28;;;;;;;14.60;13.18;;;;;;;20.46;100.00;101101.03;6197932;28;20600;-68
2023/09/13 01:29:52;;;;;;;17.27;15.52;;;;;;;20.42;100.00;101092.34;6190360;28;20233;-69
2023/09/13 01:33:13;;;;;;;18.10;16.33;;;;;;;20.35;100.00;101107.03;6205366;28;22179;-69
2023/09/13 01:36:34;;;;;;;15.27;13.88;;;;;;;20.38;100.00;101104.72;6201023;28;20229;-69
2023/09/13 01:39:55;;;;;;;13.90;12.60;;;;;;;20.44;100.00;101106.69;6185151;28;20490;-68
2023/09/13 01:43:16;;;;;;;12.98;11.63;;;;;;;20.56;100.00;101110.63;6205702;28;20548;-68
2023/09/13 01:46:43;;;;;;;13.35;12.05;;;;;;;20.55;100.00;101117.13;6201853;28;20661;-68
2023/09/13 01:50:06;;;;;;;15.98;14.30;;;;;;;20.52;100.00;101113.97;6200041;28;20236;-68
2023/09/13 01:53:27;;;;;;;15.82;14.23;;;;;;;20.40;100.00;101113.59;6207090;28;20663;-68
2023/09/13 01:56:48;;;;;;;15.73;13.75;;;;;;;20.43;100.00;101123.31;6205602;28;20228;-68
2023/09/13 02:00:11;;;;;;;15.38;12.73;;;;;;;20.48;100.00;101112.66;6189736;28;20237;-68
2023/09/13 02:03:36;;;;;;;12.95;11.68;;;;;;;20.39;100.00;101100.97;6197539;28;20535;-68
2023/09/13 02:06:57;;;;;;;13.23;11.88;;;;;;;20.38;100.00;101110.22;6199830;28;21713;-68
2023/09/13 02:10:19;;;;;;;16.80;13.00;;;;;;;20.39;100.00;101103.69;6175825;28;20237;-68
2023/09/13 02:13:39;;;;;;;11.77;10.60;;;;;;;20.46;100.00;101093.66;6202654;28;20232;-68
2023/09/13 02:17:00;;;;;;;12.10;11.00;;;;;;;20.52;100.00;101090.16;6184593;28;20237;-68
2023/09/13 02:20:22;;;;;;;8.93;8.00;;;;;;;20.58;100.00;101078.41;6199011;28;20529;-68
2023/09/13 02:23:43;;;;;;;10.73;9.77;;;;;;;20.56;100.00;101082.38;6203415;28;20336;-68
2023/09/13 02:27:05;;;;;;;9.00;8.13;;;;;;;20.59;100.00;101076.50;6206878;28;20228;-68
2023/09/13 02:30:26;;;;;;;7.05;6.32;;;;;;;20.74;100.00;101077.28;6189870;28;20588;-68
2023/09/13 02:33:47;;;;;;;7.85;7.05;;;;;;;20.62;100.00;101068.75;6202111;28;20535;-69
2023/09/13 02:37:10;;;;;;;6.50;5.88;;;;;;;20.73;100.00;101070.13;6200187;28;20324;-69
2023/09/13 02:40:31;;;;;;;7.80;7.05;;;;;;;20.54;100.00;101066.16;6200331;28;20273;-69
2023/09/13 02:43:52;;;;;;;7.35;6.75;;;;;;;20.63;100.00;101069.59;6197850;28;20518;-69
2023/09/13 02:47:12;;;;;;;7.95;7.28;;;;;;;20.62;100.00;101065.16;6197585;28;20229;-69
2023/09/13 02:50:33;;;;;;;6.65;6.15;;;;;;;20.59;100.00;101057.31;6204078;28;20229;-68
2023/09/13 02:53:55;;;;;;;6.78;6.07;;;;;;;20.59;100.00;101062.78;6191776;28;20316;-68
2023/09/13 02:57:16;;;;;;;7.10;6.47;;;;;;;20.43;100.00;101050.22;6198465;28;20237;-69
2023/09/13 03:00:37;;;;;;;5.82;5.22;;;;;;;20.48;100.00;101061.47;6204755;28;20228;-69
2023/09/13 03:03:58;;;;;;;4.90;4.47;;;;;;;20.67;100.00;101059.94;6207005;28;20241;-69
2023/09/13 03:07:19;;;;;;;7.40;6.78;;;;;;;20.52;100.00;101062.75;6203577;28;20615;-69
2023/09/13 03:10:42;;;;;;;5.57;5.00;;;;;;;20.58;100.00;101059.22;6199230;28;20321;-68
2023/09/13 03:14:03;;;;;;;5.28;4.78;;;;;;;20.67;100.00;101049.00;6201224;28;20308;-68
2023/09/13 03:17:24;;;;;;;5.35;4.90;;;;;;;20.85;100.00;101051.22;6191591;28;20320;-68
2023/09/13 03:20:45;;;;;;;5.35;4.85;;;;;;;20.82;100.00;101044.25;6202459;28;20257;-68
2023/09/13 03:24:07;;;;;;;7.13;5.97;;;;;;;20.59;100.00;101043.63;6181429;28;20242;-68
2023/09/13 03:27:33;;;;;;;5.25;4.78;;;;;;;20.51;100.00;101052.84;6191813;28;20233;-68
2023/09/13 03:30:54;;;;;;;7.07;6.38;;;;;;;20.53;100.00;101048.00;6181502;28;22105;-69
2023/09/13 03:34:15;;;;;;;9.73;8.35;;;;;;;20.48;100.00;101044.16;6210494;28;20237;-69
2023/09/13 03:37:37;;;;;;;9.45;8.50;;;;;;;20.26;100.00;101031.50;6202519;28;20249;-68
2023/09/13 03:40:58;;;;;;;9.73;8.80;;;;;;;20.30;100.00;101036.41;6191840;28;20225;-69
2023/09/13 03:44:21;;;;;;;7.85;7.13;;;;;;;20.28;100.00;101040.38;6194691;28;20229;-69
2023/09/13 03:47:43;;;;;;;9.02;7.32;;;;;;;20.21;100.00;101039.47;6202233;28;20236;-69
2023/09/13 03:51:04;;;;;;;12.43;11.32;;;;;;;20.40;100.00;101033.34;6187907;28;20236;-68
2023/09/13 03:54:25;;;;;;;13.43;12.07;;;;;;;20.43;100.00;101042.00;6198803;28;20233;-68
2023/09/13 03:57:46;;;;;;;14.02;12.30;;;;;;;20.43;100.00;101035.69;6206404;28;20220;-68
2023/09/13 04:01:08;;;;;;;10.05;8.55;;;;;;;20.41;100.00;101038.63;6181911;28;20225;-68
2023/09/13 04:04:29;;;;;;;9.43;8.52;;;;;;;20.41;100.00;101035.88;6199659;28;20241;-69
2023/09/13 04:07:50;;;;;;;9.63;8.63;;;;;;;20.21;100.00;101036.72;6206699;28;20628;-69
2023/09/13 04:11:11;;;;;;;7.43;6.75;;;;;;;20.22;100.00;101038.41;6199171;28;20232;-69
2023/09/13 04:14:32;;;;;;;8.25;6.55;;;;;;;20.11;100.00;101033.44;6196210;28;20233;-69
2023/09/13 04:17:55;;;;;;;6.78;5.40;;;;;;;20.18;100.00;101039.81;6204897;28;20225;-69
2023/09/13 04:21:16;;;;;;;5.30;4.63;;;;;;;20.17;100.00;101038.13;6205777;28;20533;-70
2023/09/13 04:24:37;;;;;;;6.65;5.93;;;;;;;20.24;100.00;101039.06;6193010;28;20232;-70
2023/09/13 04:27:58;;;;;;;3.97;3.58;;;;;;;20.30;100.00;101041.00;6214518;28;20304;-70
2023/09/13 04:31:20;;;;;;;2.92;2.72;;;;;;;20.27;100.00;101047.75;6184093;28;20232;-70
2023/09/13 04:34:42;;;;;;;2.25;2.05;;;;;;;20.12;100.00;101051.53;6193331;28;20533;-69
2023/09/13 04:38:03;;;;;;;2.45;2.10;;;;;;;20.08;100.00;101044.75;6204292;28;20264;-70
2023/09/13 04:41:24;;;;;;;2.35;2.15;;;;;;;20.11;100.00;101050.69;6203143;28;20233;-69
2023/09/13 04:44:45;;;;;;;7.38;6.78;;;;;;;20.00;100.00;101059.41;6198883;28;20237;-69
2023/09/13 04:48:07;;;;;;;3.58;3.30;;;;;;;19.91;100.00;101072.38;6203891;28;20611;-70
2023/09/13 04:51:29;;;;;;;2.20;2.00;;;;;;;19.61;100.00;101076.16;6207069;28;20236;-69
2023/09/13 04:54:51;;;;;;;7.35;6.35;;;;;;;19.71;100.00;101084.94;6205687;28;20678;-70
2023/09/13 04:58:12;;;;;;;5.20;4.80;;;;;;;19.64;100.00;101091.34;6207525;28;20230;-69
2023/09/13 05:01:33;;;;;;;4.03;3.70;;;;;;;19.99;100.00;101098.75;6178281;28;20651;-69
2023/09/13 05:04:54;;;;;;;2.88;2.25;;;;;;;19.91;100.00;101101.63;6186344;28;20236;-69
2023/09/13 05:08:17;;;;;;;1.10;1.08;;;;;;;19.63;100.00;101114.31;6201521;28;20249;-69
2023/09/13 05:11:38;;;;;;;1.73;1.20;;;;;;;19.36;100.00;101110.31;6197739;28;20371;-68
2023/09/13 05:14:59;;;;;;;2.72;2.50;;;;;;;19.39;100.00;101111.81;6200596;28;20681;-68
2023/09/13 05:18:20;;;;;;;3.70;1.70;;;;;;;19.47;100.00;101115.31;6194056;28;20233;-67
2023/09/13 05:21:41;;;;;;;3.03;1.98;;;;;;;19.56;100.00;101116.09;6189202;28;20607;-67
2023/09/13 05:25:04;;;;;;;6.32;4.35;;;;;;;19.44;100.00;101120.31;6200422;28;20241;-68
2023/09/13 05:28:25;;;;;;;2.38;2.17;;;;;;;19.63;100.00;101126.06;6193930;28;22300;-68
2023/09/13 05:31:46;;;;;;;1.15;1.10;;;;;;;19.60;100.00;101122.88;6194248;28;20232;-69
2023/09/13 05:35:07;;;;;;;1.63;1.30;;;;;;;19.56;100.00;101127.88;6201065;28;20555;-69
2023/09/13 05:38:30;;;;;;;1.90;1.13;;;;;;;19.55;100.00;101130.78;6195097;28;20237;-70
2023/09/13 05:41:54;;;;;;;4.97;1.67;;;;;;;19.45;100.00;101136.53;6192096;28;20230;-71
2023/09/13 05:45:15;;;;;;;3.35;1.42;;;;;;;19.25;100.00;101131.75;6200536;28;20833;-70
2023/09/13 05:48:36;;;;;;;2.13;1.30;;;;;;;19.25;100.00;101138.09;6195423;28;20233;-68
2023/09/13 05:51:57;;;;;;;1.02;0.80;;;;;;;19.21;100.00;101130.44;6194994;28;20260;-68
2023/09/13 05:55:18;;;;;;;1.67;1.25;;;;;;;19.14;100.00;101131.19;6195565;28;20224;-68
2023/09/13 05:58:43;;;;;;;0.73;0.70;;;;;;;19.14;100.00;101131.19;6196241;28;21102;-70
2023/09/13 06:02:04;;;;;;;1.15;1.02;;;;;;;19.15;100.00;101143.81;6197089;28;20252;-70
2023/09/13 06:05:25;;;;;;;1.30;1.05;;;;;;;19.36;100.00;101151.31;6192498;28;20248;-68
2023/09/13 06:08:46;;;;;;;0.82;0.82;;;;;;;19.17;100.00;101163.59;6183943;28;20232;-69
2023/09/13 06:12:07;;;;;;;0.88;0.60;;;;;;;19.12;100.00;101163.31;6194381;28;20610;-69
2023/09/13 06:15:30;;;;;;;0.60;0.60;;;;;;;18.99;100.00;101162.22;6198241;28;20241;-70
2023/09/13 06:18:51;;;;;;;1.05;0.70;;;;;;;18.60;100.00;101172.44;6207039;28;20233;-69
2023/09/13 06:22:12;;;;;;;1.40;0.70;;;;;;;18.77;100.00;101176.75;6196398;28;20687;-69
2023/09/13 06:25:33;;;;;;;1.83;1.60;;;;;;;18.71;100.00;101172.84;6200706;28;20232;-70
2023/09/13 06:28:54;;;;;;;1.65;1.55;;;;;;;18.74;100.00;101172.50;6201906;28;20321;-70
2023/09/13 06:32:16;;;;;;;2.13;1.30;;;;;;;18.69;100.00;101176.81;6199372;28;20505;-67
2023/09/13 06:35:38;;;;;;;4.28;3.72;;;;;;;18.63;100.00;101181.09;6202181;28;20512;-67
2023/09/13 06:38:59;;;;;;;2.45;2.22;;;;;;;18.51;100.00;101190.75;6199143;28;20319;-66
2023/09/13 06:42:20;;;;;;;2.85;1.38;;;;;;;18.53;100.00;101185.09;6209214;28;20300;-67
2023/09/13 06:45:42;;;;;;;1.65;1.45;;;;;;;18.44;100.00;101195.22;6196337;28;20246;-67
2023/09/13 06:49:05;;;;;;;0.77;0.77;;;;;;;18.45;100.00;101194.19;6210132;28;20220;-68
2023/09/13 06:52:26;;;;;;;1.30;0.90;;;;;;;18.50;100.00;101208.19;6205060;28;20229;-67
2023/09/13 06:55:47;;;;;;;1.63;1.48;;;;;;;18.47;100.00;101207.66;6204273;28;20229;-68
2023/09/13 06:59:07;;;;;;;0.90;0.88;;;;;;;18.31;100.00;101220.31;6204541;28;20228;-67
2023/09/13 07:02:29;;;;;;;0.98;0.98;;;;;;;18.23;100.00;101222.28;6201561;28;20354;-67
2023/09/13 07:05:51;;;;;;;3.53;1.40;;;;;;;18.16;100.00;101230.31;6214593;28;20236;-67
2023/09/13 07:09:12;;;;;;;1.95;1.35;;;;;;;18.26;100.00;101227.34;6204711;28;20229;-67
2023/09/13 07:12:33;;;;;;;3.13;2.03;;;;;;;18.23;100.00;101236.75;6213010;28;20225;-67
2023/09/13 07:15:54;;;;;;;2.88;1.77;;;;;;;18.15;100.00;101238.66;6208428;28;20232;-67
2023/09/13 07:19:15;;;;;;;4.32;2.28;;;;;;;18.07;100.00;101231.34;6204592;28;20233;-67
2023/09/13 07:22:37;;;;;;;3.35;1.90;;;;;;;18.10;100.00;101235.63;6211035;28;20666;-68
2023/09/13 07:25:59;;;;;;;1.95;1.75;;;;;;;18.01;100.00;101242.97;6214076;28;20315;-68
2023/09/13 07:29:19;;;;;;;3.47;2.15;;;;;;;18.00;100.00;101248.63;6207149;28;20226;-67
2023/09/13 07:32:41;;;;;;;5.22;1.50;;;;;;;18.00;99.78;101254.06;6204813;28;20248;-68
2023/09/13 07:36:03;;;;;;;5.25;1.90;;;;;;;18.00;99.61;101251.34;6200258;28;20226;-68
2023/09/13 07:39:25;;;;;;;4.57;2.20;;;;;;;18.09;99.90;101263.91;6205124;28;20729;-67
2023/09/13 07:42:46;;;;;;;4.20;2.65;;;;;;;18.12;99.91;101264.44;6210495;28;20654;-68
2023/09/13 07:46:06;;;;;;;4.93;2.30;;;;;;;18.14;99.81;101272.44;6206806;28;20229;-67
2023/09/13 07:49:27;;;;;;;3.60;1.65;;;;;;;18.15;99.22;101277.72;6199906;28;20347;-67
2023/09/13 07:52:48;;;;;;;7.13;4.15;;;;;;;18.19;99.32;101273.59;6209644;28;20233;-68
2023/09/13 07:56:10;;;;;;;6.25;4.78;;;;;;;18.39;98.70;101284.97;6213171;28;20253;-67
2023/09/13 07:59:31;;;;;;;6.68;2.72;;;;;;;18.34;98.58;101290.97;6210138;28;20320;-67
2023/09/13 08:02:52;;;;;;;4.07;2.08;;;;;;;18.25;98.94;101289.28;6206948;28;20233;-69
2023/09/13 08:06:13;;;;;;;3.85;2.40;;;;;;;18.21;98.96;101298.84;6212865;28;20422;-67
2023/09/13 08:09:34;;;;;;;4.10;2.47;;;;;;;17.95;98.90;101311.03;6213041;28;20221;-67
2023/09/13 08:12:56;;;;;;;3.28;1.60;;;;;;;17.91;100.00;101315.13;6209840;28;20312;-68
2023/09/13 08:16:19;;;;;;;2.10;1.90;;;;;;;17.77;99.85;101321.28;6221587;28;20501;-68
2023/09/13 08:19:40;;;;;;;2.05;1.38;;;;;;;17.87;99.92;101324.69;6215375;28;20323;-68
2023/09/13 08:23:01;;;;;;;3.30;1.73;;;;;;;17.93;100.00;101326.72;6201789;28;20233;-68
2023/09/13 08:26:22;;;;;;;6.35;2.72;;;;;;;18.16;100.00;101331.28;6205285;28;20230;-69
2023/09/13 08:29:44;;;;;;;4.60;2.38;;;;;;;18.53;99.61;101329.84;6212558;28;20317;-68
2023/09/13 08:33:06;;;;;;;3.60;2.17;;;;;;;18.79;98.09;101335.88;6216352;28;20272;-64
2023/09/13 08:36:27;;;;;;;5.25;2.17;;;;;;;18.99;96.05;101337.13;6203535;28;20590;-65
2023/09/13 08:39:48;;;;;;;3.30;1.50;;;;;;;19.28;93.92;101344.63;6207063;28;20225;-64
2023/09/13 08:43:10;;;;;;;4.65;1.85;;;;;;;19.15;93.19;101351.56;6211788;28;20530;-64
2023/09/13 08:46:33;;;;;;;3.90;1.80;;;;;;;19.28;93.16;101356.44;6214869;28;20274;-64
2023/09/13 08:49:58;;;;;;;6.57;2.00;;;;;;;19.07;92.40;101364.41;6210294;28;20233;-64
2023/09/13 08:53:19;;;;;;;2.25;1.80;;;;;;;18.98;92.49;101371.81;6207079;28;20234;-64
2023/09/13 08:56:42;;;;;;;4.13;2.45;;;;;;;19.14;92.28;101374.47;6208061;28;20236;-64
2023/09/13 09:00:07;;;;;;;2.78;1.67;;;;;;;18.94;92.02;101381.38;6208164;28;20229;-64
2023/09/13 09:03:30;;;;;;;3.47;2.13;;;;;;;19.02;91.33;101384.06;6209293;28;20501;-65
2023/09/13 09:06:52;;;;;;;4.35;2.25;;;;;;;18.87;91.63;101385.88;6201973;28;20254;-64
2023/09/13 09:10:14;;;;;;;6.70;2.35;;;;;;;18.63;91.90;101396.06;6203593;28;20233;-64
2023/09/13 09:13:36;;;;;;;5.55;2.60;;;;;;;18.72;91.94;101395.84;6197406;28;20488;-64
2023/09/13 09:17:00;;;;;;;2.90;1.60;;;;;;;18.71;91.47;101394.13;6205444;28;20315;-64
2023/09/13 09:20:27;;;;;;;5.72;2.58;;;;;;;18.68;91.82;101389.03;6197986;28;20324;-64
2023/09/13 09:23:48;;;;;;;2.53;1.52;;;;;;;18.94;90.64;101384.13;6206404;28;20248;-64
2023/09/13 09:27:10;;;;;;;5.03;2.05;;;;;;;19.15;89.48;101386.22;6209376;28;20275;-64
2023/09/13 09:30:33;;;;;;;9.77;6.65;;;;;;;18.89;90.01;101382.97;6204497;28;20233;-64
2023/09/13 09:34:03;;;;;;;4.57;3.53;;;;;;;18.64;91.15;101387.66;6197410;28;20265;-65
2023/09/13 09:37:29;;;;;;;4.15;2.20;;;;;;;18.72;91.91;101392.25;6203569;28;20808;-65
2023/09/13 09:40:51;;;;;;;4.43;2.25;;;;;;;18.73;91.63;101404.88;6197613;28;20229;-64
2023/09/13 09:44:12;;;;;;;3.17;2.13;;;;;;;18.79;90.72;101412.38;6193161;28;20304;-64
2023/09/13 09:47:37;;;;;;;3.38;2.42;;;;;;;18.79;90.92;101418.69;6194579;28;21151;-62
2023/09/13 09:50:59;;;;;;;6.65;3.08;;;;;;;18.73;91.23;101426.75;6181752;28;20229;-62
2023/09/13 09:54:21;;;;;;;6.60;4.82;;;;;;;18.71;91.37;101434.25;6208476;28;20236;-63
2023/09/13 09:57:46;;;;;;;5.95;3.40;;;;;;;18.47;92.27;101437.91;6200519;28;20224;-66
2023/09/13 10:01:08;;;;;;;4.30;2.15;;;;;;;18.28;93.47;101433.63;6207655;28;20249;-66
2023/09/13 10:04:29;;;;;;;6.32;2.08;;;;;;;18.12;93.61;101438.25;6207395;28;20225;-66
2023/09/13 10:07:51;;;;;;;3.38;2.33;;;;;;;17.92;94.66;101437.72;6189116;28;20242;-68
2023/09/13 10:11:14;;;;;;;5.00;2.42;;;;;;;17.86;95.33;101446.59;6208683;28;20650;-67
2023/09/13 10:14:35;;;;;;;5.32;2.67;;;;;;;17.98;95.51;101441.66;6202484;28;20221;-66
2023/09/13 10:17:56;;;;;;;8.98;2.33;;;;;;;18.00;95.28;101434.16;6210449;28;20224;-67
2023/09/13 10:21:24;;;;;;;2.95;1.83;;;;;;;18.13;95.41;101446.25;6205331;28;20232;-67
2023/09/13 10:24:48;;;;;;;5.50;3.08;;;;;;;18.10;95.32;101443.88;6196594;28;20612;-67
2023/09/13 10:28:13;;;;;;;6.75;2.42;;;;;;;18.12;95.69;101455.47;6203674;28;20332;-67
2023/09/13 10:31:40;;;;;;;2.90;2.30;;;;;;;18.11;95.62;101459.22;6209528;28;20225;-67
2023/09/13 10:35:03;;;;;;;5.45;2.53;;;;;;;18.06;95.71;101450.72;6205199;28;20702;-67
2023/09/13 10:38:30;;;;;;;3.50;3.03;;;;;;;17.99;95.45;101460.59;6206592;28;20241;-67
2023/09/13 10:41:58;;;;;;;4.05;1.98;;;;;;;18.09;95.30;101465.88;6201515;28;20226;-67
2023/09/13 10:45:22;;;;;;;7.93;3.70;;;;;;;18.11;95.54;101470.13;6204694;28;20577;-68
2023/09/13 10:48:45;;;;;;;10.63;6.60;;;;;;;18.07;96.05;101470.63;6205756;28;20635;-67
2023/09/13 10:52:07;;;;;;;5.70;2.58;;;;;;;17.96;95.35;101485.47;6207579;28;20622;-67
2023/09/13 10:55:28;;;;;;;7.57;2.80;;;;;;;17.89;94.98;101483.59;6208246;28;20232;-67
2023/09/13 10:58:50;;;;;;;4.68;2.00;;;;;;;17.85;95.81;101485.81;6209392;28;20229;-67
2023/09/13 11:02:13;;;;;;;2.15;1.70;;;;;;;17.93;95.36;101491.28;6188624;28;20262;-66
2023/09/13 11:05:34;;;;;;;4.15;2.55;;;;;;;17.97;95.08;101495.38;6202658;28;20599;-67
2023/09/13 11:09:10;;;;;;;5.93;2.65;;;;;;;18.19;94.72;101515.69;6200313;28;20225;-66
2023/09/13 11:12:35;;;;;;;10.75;2.38;;;;;;;18.18;95.29;101508.53;6204661;28;20976;-67
2023/09/13 11:16:01;;;;;;;4.13;1.80;;;;;;;18.19;95.29;101516.53;6198363;28;20284;-67
2023/09/13 11:19:28;;;;;;;7.60;2.67;;;;;;;18.05;94.75;101519.06;6200620;28;20244;-68
2023/09/13 11:23:03;;;;;;;3.10;2.00;;;;;;;17.98;94.96;101520.78;6201733;28;20237;-67
2023/09/13 11:26:44;;;;;;;4.70;2.92;;;;;;;18.01;94.70;101513.13;6210099;28;20229;-67
2023/09/13 11:30:06;;;;;;;3.78;2.00;;;;;;;18.14;94.65;101524.41;6203624;28;20252;-67
2023/09/13 11:33:28;;;;;;;3.55;1.98;;;;;;;18.13;93.66;101528.13;6182601;28;20222;-67
2023/09/13 11:36:57;;;;;;;5.45;2.20;;;;;;;18.24;93.24;101519.63;6208478;28;20619;-67
2023/09/13 11:40:18;;;;;;;4.57;1.83;;;;;;;18.33;92.51;101529.53;6205673;28;20229;-67
2023/09/13 11:43:41;;;;;;;4.18;1.60;;;;;;;18.30;90.65;101535.31;6209705;28;20529;-67
2023/09/13 11:47:02;;;;;;;3.83;2.15;;;;;;;18.46;90.15;101539.09;6210027;28;20229;-67
2023/09/13 11:50:23;;;;;;;7.57;2.35;;;;;;;18.42;88.82;101541.28;6202851;28;20228;-67
2023/09/13 11:53:49;;;;;;;4.22;2.03;;;;;;;18.66;88.98;101535.84;6218134;28;20229;-67
2023/09/13 11:57:13;;;;;;;2.88;1.65;;;;;;;18.66;88.02;101541.31;6213775;28;20233;-67
2023/09/13 12:00:41;;;;;;;4.20;2.45;;;;;;;18.76;86.75;101539.25;6209914;28;20228;-68
2023/09/13 12:04:04;;;;;;;4.22;2.05;;;;;;;18.80;87.08;101547.94;6214915;28;20228;-67
2023/09/13 12:07:30;;;;;;;3.95;2.00;;;;;;;18.64;87.41;101550.69;6213494;28;20321;-68
2023/09/13 12:10:53;;;;;;;4.47;2.53;;;;;;;18.60;86.12;101558.41;6210769;28;20594;-67
2023/09/13 12:14:14;;;;;;;3.72;1.70;;;;;;;18.45;85.97;101560.09;6209386;28;20229;-67
2023/09/13 12:17:38;;;;;;;3.22;1.60;;;;;;;18.25;84.85;101578.63;6206126;28;20320;-67
2023/09/13 12:20:59;;;;;;;7.68;2.28;;;;;;;18.30;86.04;101580.88;6174991;28;20229;-67
2023/09/13 12:24:22;;;;;;;5.43;1.85;;;;;;;18.25;86.11;101584.09;6208418;28;20630;-67
2023/09/13 12:27:46;;;;;;;4.13;2.08;;;;;;;17.95;85.95;101583.88;6209544;28;20233;-67
2023/09/13 12:31:09;;;;;;;2.40;1.73;;;;;;;17.69;85.93;101596.75;6210458;28;20233;-67
2023/09/13 12:34:31;;;;;;;5.07;2.03;;;;;;;17.58;86.46;101617.81;6206211;28;20236;-68
2023/09/13 12:37:59;;;;;;;3.13;1.55;;;;;;;17.65;86.45;101606.28;6212849;28;20256;-68
2023/09/13 12:41:21;;;;;;;3.88;1.95;;;;;;;17.51;86.47;101618.66;6212146;28;20228;-67
2023/09/13 12:44:45;;;;;;;6.07;1.92;;;;;;;17.40;87.34;101627.06;6213524;28;20233;-66
2023/09/13 12:48:06;;;;;;;3.45;1.40;;;;;;;17.45;87.40;101628.31;6202872;28;20236;-67
2023/09/13 12:51:28;;;;;;;4.43;3.72;;;;;;;17.51;87.18;101641.31;6204017;28;20332;-66
2023/09/13 12:54:49;;;;;;;2.67;2.05;;;;;;;17.41;87.95;101645.16;6212792;28;20249;-67
2023/09/13 12:58:11;;;;;;;3.92;2.35;;;;;;;17.32;86.20;101646.97;6211504;28;20233;-68
2023/09/13 13:01:35;;;;;;;3.55;2.10;;;;;;;17.44;83.86;101640.22;6209129;28;20546;-67
2023/09/13 13:04:57;;;;;;;5.15;2.15;;;;;;;17.42;82.85;101657.75;6209572;28;20229;-67
2023/09/13 13:08:18;;;;;;;3.10;2.20;;;;;;;17.22;82.19;101654.41;6204942;28;20671;-67
2023/09/13 13:11:40;;;;;;;2.78;2.33;;;;;;;17.06;80.67;101664.31;6210748;28;20480;-68
2023/09/13 13:15:01;;;;;;;4.32;2.13;;;;;;;16.94;79.78;101671.88;6209457;28;20678;-67
2023/09/13 13:18:24;;;;;;;4.03;1.90;;;;;;;16.92;80.46;101670.34;6209522;28;20229;-67
2023/09/13 13:21:52;;;;;;;4.53;2.25;;;;;;;16.98;80.61;101670.53;6208622;28;20233;-67
2023/09/13 13:25:13;;;;;;;1.73;1.42;;;;;;;16.86;80.96;101679.97;6208794;28;20504;-68
2023/09/13 13:28:35;;;;;;;2.03;1.75;;;;;;;17.27;81.19;101667.56;6196657;28;20241;-63
2023/09/13 13:31:56;;;;;;;8.85;2.38;;;;;;;17.62;81.33;101670.19;6207608;28;20240;-68
2023/09/13 13:35:18;;;;;;;5.38;2.10;;;;;;;18.05;79.85;101674.63;6206398;28;20233;-69
2023/09/13 13:38:40;;;;;;;3.65;1.92;;;;;;;18.04;80.25;101678.38;6205924;28;20224;-69
2023/09/13 13:42:02;;;;;;;1.65;1.50;;;;;;;17.94;80.59;101677.66;6176999;28;20232;-69
2023/09/13 13:45:23;;;;;;;4.78;1.73;;;;;;;17.73;81.36;101678.06;6207717;28;20244;-69
2023/09/13 13:48:45;;;;;;;2.95;1.33;;;;;;;17.72;81.49;101673.63;6209427;28;20237;-70
2023/09/13 13:52:07;;;;;;;2.53;1.30;;;;;;;18.25;81.89;101670.63;6218033;28;20232;-73
2023/09/13 13:55:28;;;;;;;2.15;1.33;;;;;;;18.31;79.70;101675.41;6208224;28;20233;-67
2023/09/13 13:58:49;;;;;;;2.28;1.52;;;;;;;18.82;79.49;101680.63;6208641;28;20233;-65
2023/09/13 14:02:10;;;;;;;2.30;1.63;;;;;;;19.14;76.67;101675.19;6205350;28;20225;-71
2023/09/13 14:05:32;;;;;;;2.88;2.28;;;;;;;19.24;76.66;101677.72;6208733;28;20841;-67
2023/09/13 14:08:54;;;;;;;7.32;6.53;;;;;;;19.42;74.53;101680.31;6207703;28;20241;-67
2023/09/13 14:12:15;;;;;;;3.17;2.88;;;;;;;19.48;73.76;101676.88;6200862;28;20248;-67
2023/09/13 14:15:36;;;;;;;3.38;1.75;;;;;;;19.05;73.95;101673.47;6209725;28;20643;-67
2023/09/13 14:18:57;;;;;;;3.35;1.98;;;;;;;19.48;73.59;101672.25;6205951;28;20232;-66
2023/09/13 14:22:19;;;;;;;1.67;1.27;;;;;;;19.93;72.15;101669.72;6203257;28;20238;-73
2023/09/13 14:25:42;;;;;;;5.18;1.58;;;;;;;19.74;69.81;101661.91;6182748;28;20627;-74
2023/09/13 14:29:03;;;;;;;4.15;1.80;;;;;;;19.89;71.00;101664.75;6194009;28;20233;-73
2023/09/13 14:32:26;;;;;;;4.00;1.55;;;;;;;20.01;69.87;101665.22;6201047;28;20603;-74
2023/09/13 14:35:47;;;;;;;4.10;1.80;;;;;;;20.22;68.95;101665.47;6204658;28;20954;-73
2023/09/13 14:39:08;;;;;;;1.65;1.23;;;;;;;20.50;68.10;101675.78;6205172;28;20240;-73
2023/09/13 14:42:30;;;;;;;1.67;1.48;;;;;;;20.27;67.39;101665.81;6197757;28;20241;-73
2023/09/13 14:45:51;;;;;;;4.65;1.67;;;;;;;19.97;67.30;101685.75;6199183;28;20718;-72
2023/09/13 14:49:12;;;;;;;4.28;1.63;;;;;;;19.66;68.85;101686.56;6204752;28;20244;-73
2023/09/13 14:52:36;;;;;;;2.33;1.13;;;;;;;19.56;68.70;101683.19;6189447;28;20228;-72
2023/09/13 14:55:57;;;;;;;7.13;1.83;;;;;;;19.83;68.45;101687.38;6199512;28;20606;-73
2023/09/13 14:59:22;;;;;;;7.70;2.28;;;;;;;21.08;67.54;101693.53;6201525;28;20611;-72
2023/09/13 15:02:43;;;;;;;2.70;1.80;;;;;;;22.02;61.88;101689.13;6203321;28;20228;-73
2023/09/13 15:06:04;;;;;;;2.33;1.58;;;;;;;21.74;60.90;101698.16;6196168;28;20244;-71
2023/09/13 15:09:25;;;;;;;1.73;1.15;;;;;;;21.93;60.27;101687.50;6196535;28;20248;-73
2023/09/13 15:12:47;;;;;;;15.10;2.33;;;;;;;21.38;58.58;101696.16;6195715;28;20225;-73
2023/09/13 15:16:12;;;;;;;4.32;1.80;;;;;;;21.53;58.98;101695.34;6198137;28;20556;-73
2023/09/13 15:19:32;;;;;;;2.85;1.70;;;;;;;21.46;56.81;101695.22;6195434;28;20249;-73
2023/09/13 15:22:53;;;;;;;1.90;1.70;;;;;;;21.69;56.23;101700.66;6201082;28;20225;-71
2023/09/13 15:26:14;;;;;;;1.35;1.25;;;;;;;21.46;56.69;101697.97;6204269;28;20638;-71
2023/09/13 15:29:35;;;;;;;2.28;1.17;;;;;;;21.32;55.17;101707.00;6201111;28;20794;-72
2023/09/13 15:32:58;;;;;;;2.53;1.65;;;;;;;21.04;54.61;101708.63;6200289;28;20257;-73